createdAt,value
2019-01-26T00:00:19.846Z,2.900000
2019-01-26T00:02:50.287Z,3.800000
2019-01-26T00:05:20.583Z,3.800000
2019-01-26T00:07:50.878Z,3.500000
2019-01-26T00:10:21.197Z,3.500000
2019-01-26T00:12:51.498Z,3.500000
2019-01-26T00:15:21.814Z,3.500000
2019-01-26T00:17:52.127Z,3.300000
2019-01-26T00:20:22.548Z,3.300000
2019-01-26T00:22:52.860Z,3.100000
2019-01-26T00:25:23.228Z,3.100000
2019-01-26T00:27:53.605Z,4.400000
2019-01-26T00:30:23.935Z,4.400000
2019-01-26T00:32:54.149Z,4.400000
2019-01-26T00:35:24.489Z,4.400000
2019-01-26T00:37:54.759Z,3.900000
2019-01-26T00:40:25.075Z,3.900000
2019-01-26T00:42:55.387Z,3.700000
2019-01-26T00:45:25.696Z,3.700000
2019-01-26T00:47:56.014Z,4.500000
2019-01-26T00:50:26.317Z,4.500000
2019-01-26T00:52:56.530Z,3.800000
2019-01-26T00:55:26.904Z,3.800000
2019-01-26T00:57:57.256Z,4.400000
2019-01-26T01:00:27.558Z,4.400000
2019-01-26T01:02:57.774Z,5.200000
2019-01-26T01:05:28.078Z,5.200000
2019-01-26T01:07:58.297Z,4.400000
2019-01-26T01:10:28.500Z,4.400000
2019-01-26T01:12:58.708Z,4.000000
2019-01-26T01:15:28.926Z,4.000000
2019-01-26T01:17:59.341Z,4.100000
2019-01-26T01:20:29.642Z,4.100000
2019-01-26T01:22:59.962Z,4.200000
2019-01-26T01:25:30.268Z,4.200000
2019-01-26T01:28:00.566Z,4.000000
2019-01-26T01:30:30.773Z,4.000000
2019-01-26T01:33:01.060Z,4.900000
2019-01-26T01:35:31.264Z,3.800000
2019-01-26T01:38:01.579Z,3.800000
2019-01-26T01:40:31.883Z,4.300000
2019-01-26T01:43:02.286Z,4.300000
2019-01-26T01:45:32.574Z,4.100000
2019-01-26T01:48:02.918Z,4.100000
2019-01-26T01:50:33.412Z,4.000000
2019-01-26T01:53:03.839Z,4.000000
2019-01-26T01:55:34.177Z,3.700000
2019-01-26T01:58:04.610Z,3.700000
2019-01-26T02:00:34.948Z,4.400000
2019-01-26T02:03:05.163Z,4.400000
2019-01-26T02:05:35.562Z,4.400000
2019-01-26T02:08:05.776Z,4.400000
2019-01-26T02:10:35.992Z,5.300000
2019-01-26T02:13:06.292Z,5.300000
2019-01-26T02:15:36.523Z,4.800000
2019-01-26T02:18:06.732Z,4.800000
2019-01-26T02:20:37.078Z,5.300000
2019-01-26T02:23:07.281Z,5.300000
2019-01-26T02:25:37.812Z,4.800000
2019-01-26T02:28:08.211Z,4.800000
2019-01-26T02:30:38.533Z,4.200000
2019-01-26T02:33:08.955Z,4.200000
2019-01-26T02:35:39.482Z,5.300000
2019-01-26T02:38:09.896Z,5.300000
2019-01-26T02:40:40.294Z,4.600000
2019-01-26T02:43:10.608Z,4.600000
2019-01-26T02:45:40.921Z,5.900000
2019-01-26T02:48:11.227Z,5.900000
2019-01-26T02:50:41.542Z,6.600000
2019-01-26T02:53:12.057Z,6.600000
2019-01-26T02:55:42.392Z,5.700000
2019-01-26T02:58:12.691Z,5.700000
2019-01-26T03:00:42.913Z,5.700000
2019-01-26T03:03:13.241Z,5.700000
2019-01-26T03:05:43.554Z,5.500000
2019-01-26T03:08:18.784Z,5.500000
2019-01-26T03:10:49.070Z,6.400000
2019-01-26T03:13:19.338Z,6.400000
2019-01-26T03:15:54.803Z,5.700000
2019-01-26T03:18:25.032Z,5.700000
2019-01-26T03:20:55.458Z,5.800000
2019-01-26T03:23:25.778Z,5.800000
2019-01-26T03:25:56.141Z,6.000000
2019-01-26T03:28:26.522Z,6.000000
2019-01-26T03:30:56.862Z,5.900000
2019-01-26T03:33:27.179Z,5.900000
2019-01-26T03:35:58.723Z,5.800000
2019-01-26T03:38:29.023Z,5.800000
2019-01-26T03:40:59.540Z,5.200000
2019-01-26T03:43:34.944Z,5.200000
2019-01-26T03:46:05.311Z,5.700000
2019-01-26T03:48:35.701Z,5.700000
2019-01-26T03:51:06.027Z,5.900000
2019-01-26T03:53:36.353Z,5.900000
2019-01-26T03:56:06.674Z,6.000000
2019-01-26T03:58:37.038Z,6.000000
2019-01-26T04:01:07.369Z,7.200000
2019-01-26T04:03:37.805Z,7.200000
2019-01-26T04:06:08.236Z,5.400000
2019-01-26T04:08:38.658Z,5.400000
2019-01-26T04:11:09.015Z,7.300000
2019-01-26T04:13:39.239Z,7.300000
2019-01-26T04:16:09.567Z,6.300000
2019-01-26T04:18:39.795Z,6.300000
2019-01-26T04:21:10.361Z,6.000000
2019-01-26T04:23:40.721Z,6.000000
2019-01-26T04:26:11.061Z,6.500000
2019-01-26T04:28:41.308Z,6.500000
2019-01-26T04:31:11.531Z,6.000000
2019-01-26T04:33:41.793Z,6.000000
2019-01-26T04:36:12.129Z,6.800000
2019-01-26T04:38:42.454Z,6.800000
2019-01-26T04:41:12.892Z,6.500000
2019-01-26T04:43:43.233Z,6.500000
2019-01-26T04:46:13.550Z,7.200000
2019-01-26T04:48:43.976Z,7.200000
2019-01-26T04:51:14.303Z,6.700000
2019-01-26T04:53:44.632Z,6.700000
2019-01-26T04:56:15.047Z,6.500000
2019-01-26T04:58:45.360Z,6.500000
2019-01-26T05:01:15.590Z,6.700000
2019-01-26T05:03:45.881Z,6.700000
2019-01-26T05:06:16.211Z,6.700000
2019-01-26T05:08:46.533Z,6.700000
2019-01-26T05:11:16.852Z,6.600000
2019-01-26T05:13:47.266Z,6.600000
2019-01-26T05:16:17.630Z,5.900000
2019-01-26T05:18:48.049Z,5.900000
2019-01-26T05:21:20.353Z,5.400000
2019-01-26T05:23:55.662Z,5.400000
2019-01-26T05:26:25.981Z,5.500000
2019-01-26T05:28:56.218Z,5.500000
2019-01-26T05:31:26.565Z,5.300000
2019-01-26T05:33:57.033Z,5.300000
2019-01-26T05:36:27.304Z,5.200000
2019-01-26T05:38:57.732Z,5.200000
2019-01-26T05:41:28.073Z,5.100000
2019-01-26T05:43:58.311Z,5.100000
2019-01-26T05:46:28.518Z,5.200000
2019-01-26T05:48:58.764Z,5.200000
2019-01-26T05:51:29.003Z,5.800000
2019-01-26T05:53:59.337Z,5.800000
2019-01-26T05:56:29.555Z,4.200000
2019-01-26T05:58:59.785Z,4.200000
2019-01-26T06:01:30.019Z,5.000000
2019-01-26T06:04:00.339Z,5.000000
2019-01-26T06:06:30.655Z,4.200000
2019-01-26T06:09:01.017Z,4.200000
2019-01-26T06:11:31.242Z,4.500000
2019-01-26T06:14:01.559Z,4.500000
2019-01-26T06:16:31.970Z,4.600000
2019-01-26T06:19:02.580Z,4.500000
2019-01-26T06:21:32.823Z,4.500000
2019-01-26T06:24:03.074Z,4.900000
2019-01-26T06:26:33.412Z,4.900000
2019-01-26T06:29:03.682Z,4.100000
2019-01-26T06:31:34.071Z,4.100000
2019-01-26T06:34:04.371Z,3.900000
2019-01-26T06:36:34.649Z,3.900000
2019-01-26T06:39:04.989Z,3.500000
2019-01-26T06:41:35.330Z,3.500000
2019-01-26T06:44:05.586Z,4.600000
2019-01-26T06:46:35.916Z,4.600000
2019-01-26T06:49:06.354Z,4.500000
2019-01-26T06:51:36.593Z,4.500000
2019-01-26T06:54:07.040Z,4.100000
2019-01-26T06:56:37.379Z,4.100000
2019-01-26T06:59:07.720Z,4.000000
2019-01-26T07:01:38.040Z,4.000000
2019-01-26T07:04:08.272Z,4.900000
2019-01-26T07:06:38.513Z,4.900000
2019-01-26T07:09:08.965Z,4.400000
2019-01-26T07:11:39.301Z,4.400000
2019-01-26T07:14:09.533Z,4.200000
2019-01-26T07:16:39.783Z,4.200000
2019-01-26T07:19:10.010Z,3.800000
2019-01-26T07:21:40.239Z,3.800000
2019-01-26T07:24:10.551Z,3.100000
2019-01-26T07:26:40.793Z,3.100000
2019-01-26T07:29:11.012Z,4.400000
2019-01-26T07:31:41.263Z,4.400000
2019-01-26T07:34:11.584Z,4.100000
2019-01-26T07:36:42.037Z,4.100000
2019-01-26T07:39:12.479Z,4.200000
2019-01-26T07:41:47.767Z,4.200000
2019-01-26T07:44:18.095Z,4.900000
2019-01-26T07:46:48.423Z,4.900000
2019-01-26T07:49:18.762Z,3.300000
2019-01-26T07:51:54.060Z,3.300000
2019-01-26T07:54:24.278Z,3.800000
2019-01-26T07:56:54.523Z,3.800000
2019-01-26T07:59:24.840Z,3.900000
2019-01-26T08:01:55.176Z,3.900000
2019-01-26T08:04:30.482Z,3.500000
2019-01-26T08:07:01.020Z,3.500000
2019-01-26T08:09:31.440Z,4.000000
2019-01-26T08:12:01.843Z,4.000000
2019-01-26T08:14:32.179Z,3.500000
2019-01-26T08:17:02.605Z,3.500000
2019-01-26T08:19:32.934Z,3.100000
2019-01-26T08:22:03.270Z,3.100000
2019-01-26T08:24:33.610Z,3.700000
2019-01-26T08:27:03.930Z,3.700000
2019-01-26T08:29:34.303Z,3.600000
2019-01-26T08:32:04.605Z,3.600000
2019-01-26T08:34:34.945Z,3.000000
2019-01-26T08:37:05.179Z,3.000000
2019-01-26T08:39:35.517Z,3.700000
2019-01-26T08:42:05.984Z,3.700000
2019-01-26T08:44:36.459Z,3.300000
2019-01-26T08:47:07.069Z,3.300000
2019-01-26T08:49:42.266Z,3.700000
2019-01-26T08:52:12.499Z,3.700000
2019-01-26T08:54:42.857Z,3.000000
2019-01-26T08:57:13.205Z,3.000000
2019-01-26T08:59:43.553Z,3.800000
2019-01-26T09:02:13.795Z,3.800000
2019-01-26T09:04:44.043Z,2.800000
2019-01-26T09:07:14.295Z,2.800000
2019-01-26T09:09:44.881Z,3.300000
2019-01-26T09:12:20.140Z,3.300000
2019-01-26T09:14:50.526Z,3.100000
2019-01-26T09:17:20.863Z,3.100000
2019-01-26T09:19:51.190Z,3.300000
2019-01-26T09:22:21.794Z,3.300000
2019-01-26T09:24:52.014Z,3.200000
2019-01-26T09:27:22.275Z,3.200000
2019-01-26T09:29:52.539Z,3.300000
2019-01-26T09:32:22.858Z,3.300000
2019-01-26T09:34:53.268Z,3.200000
2019-01-26T09:37:23.780Z,3.200000
2019-01-26T09:39:54.039Z,3.100000
2019-01-26T09:42:24.301Z,3.100000
2019-01-26T09:44:54.536Z,3.200000
2019-01-26T09:47:24.861Z,3.200000
2019-01-26T09:49:55.156Z,3.300000
2019-01-26T09:52:25.421Z,3.300000
2019-01-26T09:54:55.639Z,3.200000
2019-01-26T09:57:25.995Z,3.200000
2019-01-26T09:59:56.345Z,2.900000
2019-01-26T10:02:26.699Z,2.900000
2019-01-26T10:04:56.966Z,3.100000
2019-01-26T10:07:27.321Z,3.100000
2019-01-26T10:09:57.604Z,3.100000
2019-01-26T10:12:27.844Z,3.100000
2019-01-26T10:14:58.121Z,3.500000
2019-01-26T10:17:28.511Z,3.500000
2019-01-26T10:19:58.837Z,4.400000
2019-01-26T10:22:29.195Z,4.400000
2019-01-26T10:24:59.648Z,2.700000
2019-01-26T10:27:30.020Z,2.700000
2019-01-26T10:30:00.328Z,3.100000
2019-01-26T10:32:30.664Z,3.100000
2019-01-26T10:35:01.039Z,4.200000
2019-01-26T10:37:31.303Z,4.200000
2019-01-26T10:40:01.575Z,3.800000
2019-01-26T10:42:31.861Z,3.800000
2019-01-26T10:45:02.237Z,4.200000
2019-01-26T10:47:32.607Z,4.200000
2019-01-26T10:50:04.668Z,4.100000
2019-01-26T10:52:34.994Z,4.100000
2019-01-26T10:55:05.281Z,4.400000
2019-01-26T10:57:35.527Z,4.400000
2019-01-26T11:00:05.794Z,4.400000
2019-01-26T11:02:36.060Z,4.200000
2019-01-26T11:05:06.344Z,4.200000
2019-01-26T11:07:36.821Z,3.900000
2019-01-26T11:10:07.705Z,3.900000
2019-01-26T11:12:38.280Z,4.700000
2019-01-26T11:15:08.647Z,4.700000
2019-01-26T11:17:38.894Z,4.300000
2019-01-26T11:20:09.707Z,4.300000
2019-01-26T11:22:40.019Z,5.000000
2019-01-26T11:25:10.363Z,5.000000
2019-01-26T11:27:40.627Z,4.600000
2019-01-26T11:30:10.958Z,4.600000
2019-01-26T11:32:41.303Z,3.800000
2019-01-26T11:35:11.565Z,3.800000
2019-01-26T11:37:41.928Z,5.000000
2019-01-26T11:40:12.322Z,5.000000
2019-01-26T11:42:42.663Z,5.300000
2019-01-26T11:45:13.042Z,5.300000
2019-01-26T11:47:43.321Z,4.300000
2019-01-26T11:50:13.704Z,4.300000
2019-01-26T11:52:43.991Z,4.300000
2019-01-26T11:55:14.353Z,4.300000
2019-01-26T11:57:44.647Z,4.800000
2019-01-26T12:00:15.021Z,4.800000
2019-01-26T12:02:45.460Z,4.200000
2019-01-26T12:05:15.786Z,4.200000
2019-01-26T12:07:46.156Z,4.100000
2019-01-26T12:10:16.440Z,4.100000
2019-01-26T12:12:46.811Z,4.000000
2019-01-26T12:15:22.174Z,4.000000
2019-01-26T12:17:52.451Z,4.100000
2019-01-26T12:20:22.763Z,4.100000
2019-01-26T12:22:53.095Z,3.400000
2019-01-26T12:25:23.502Z,3.400000
2019-01-26T12:27:53.850Z,3.400000
2019-01-26T12:30:24.162Z,3.400000
2019-01-26T12:32:54.390Z,3.300000
2019-01-26T12:35:24.761Z,3.300000
2019-01-26T12:37:55.037Z,3.900000
2019-01-26T12:40:25.293Z,3.900000
2019-01-26T12:42:55.592Z,3.000000
2019-01-26T12:45:26.048Z,3.000000
2019-01-26T12:47:56.321Z,3.500000
2019-01-26T12:50:26.599Z,3.500000
2019-01-26T12:52:56.991Z,3.500000
2019-01-26T12:55:27.417Z,3.500000
2019-01-26T12:57:57.793Z,3.100000
2019-01-26T13:00:28.188Z,3.100000
2019-01-26T13:03:03.505Z,3.400000
2019-01-26T13:05:33.772Z,3.400000
2019-01-26T13:08:04.057Z,3.500000
2019-01-26T13:10:34.305Z,3.500000
2019-01-26T13:13:04.698Z,2.700000
2019-01-26T13:15:35.013Z,2.700000
2019-01-26T13:18:05.264Z,3.400000
2019-01-26T13:20:35.769Z,3.400000
2019-01-26T13:23:06.019Z,3.200000
2019-01-26T13:25:36.414Z,3.200000
2019-01-26T13:28:06.654Z,2.700000
2019-01-26T13:30:36.999Z,2.700000
2019-01-26T13:33:07.252Z,3.000000
2019-01-26T13:35:37.504Z,3.000000
2019-01-26T13:38:07.769Z,3.300000
2019-01-26T13:40:38.048Z,3.300000
2019-01-26T13:43:08.313Z,3.500000
2019-01-26T13:45:38.607Z,3.500000
2019-01-26T13:48:08.994Z,3.600000
2019-01-26T13:50:39.361Z,3.600000
2019-01-26T13:53:09.724Z,3.300000
2019-01-26T13:55:40.130Z,3.300000
2019-01-26T13:58:10.492Z,3.000000
2019-01-26T14:00:40.778Z,3.000000
2019-01-26T14:03:11.119Z,2.800000
2019-01-26T14:05:41.537Z,2.800000
2019-01-26T14:08:11.910Z,4.200000
2019-01-26T14:10:42.289Z,4.200000
2019-01-26T14:13:12.679Z,4.300000
2019-01-26T14:15:42.978Z,4.300000
2019-01-26T14:18:13.270Z,4.300000
2019-01-26T14:20:43.554Z,4.300000
2019-01-26T14:23:13.822Z,4.100000
2019-01-26T14:25:44.181Z,4.100000
2019-01-26T14:28:14.538Z,4.300000
2019-01-26T14:30:44.810Z,4.300000
2019-01-26T14:33:15.297Z,3.000000
2019-01-26T14:35:45.619Z,3.000000
2019-01-26T14:38:16.008Z,4.400000
2019-01-26T14:40:46.321Z,4.400000
2019-01-26T14:43:16.574Z,3.600000
2019-01-26T14:45:46.844Z,3.600000
2019-01-26T14:48:17.232Z,3.600000
2019-01-26T14:50:47.566Z,3.600000
2019-01-26T14:53:17.848Z,3.600000
2019-01-26T14:55:48.154Z,3.600000
2019-01-26T14:58:18.425Z,3.300000
2019-01-26T15:00:48.744Z,3.300000
2019-01-26T15:03:19.029Z,3.300000
2019-01-26T15:05:49.275Z,3.300000
2019-01-26T15:08:19.511Z,3.300000
2019-01-26T15:10:54.785Z,3.300000
2019-01-26T15:13:25.010Z,3.500000
2019-01-26T15:15:55.274Z,3.500000
2019-01-26T15:18:25.559Z,3.800000
2019-01-26T15:20:55.804Z,3.800000
2019-01-26T15:23:26.070Z,3.500000
2019-01-26T15:25:56.631Z,3.500000
2019-01-26T15:28:27.064Z,3.500000
2019-01-26T15:30:57.364Z,3.500000
2019-01-26T15:33:27.784Z,3.400000
2019-01-26T15:35:58.119Z,3.400000
2019-01-26T15:38:28.551Z,3.300000
2019-01-26T15:40:58.784Z,3.300000
2019-01-26T15:43:29.032Z,3.300000
2019-01-26T15:45:59.475Z,3.300000
2019-01-26T15:48:29.725Z,3.000000
2019-01-26T15:51:00.070Z,3.000000
2019-01-26T15:53:30.418Z,2.600000
2019-01-26T15:56:00.755Z,2.600000
2019-01-26T15:58:31.159Z,2.600000
2019-01-26T16:01:01.554Z,2.600000
2019-01-26T16:03:31.866Z,2.700000
2019-01-26T16:06:02.207Z,2.700000
2019-01-26T16:08:32.568Z,2.800000
2019-01-26T16:11:02.771Z,2.800000
2019-01-26T16:13:33.017Z,2.600000
2019-01-26T16:16:03.357Z,2.600000
2019-01-26T16:18:33.748Z,2.800000
2019-01-26T16:21:04.045Z,2.700000
2019-01-26T16:23:34.288Z,2.700000
2019-01-26T16:26:04.724Z,3.600000
2019-01-26T16:28:35.081Z,3.600000
2019-01-26T16:31:05.297Z,3.100000
2019-01-26T16:33:35.541Z,3.100000
2019-01-26T16:36:05.779Z,3.100000
2019-01-26T16:38:36.098Z,3.100000
2019-01-26T16:41:06.534Z,3.000000
2019-01-26T16:43:36.811Z,3.000000
2019-01-26T16:46:07.321Z,4.700000
2019-01-26T16:48:37.586Z,4.700000
2019-01-26T16:51:08.813Z,4.400000
2019-01-26T16:53:39.237Z,4.400000
2019-01-26T16:56:09.605Z,4.500000
2019-01-26T16:58:39.916Z,4.500000
2019-01-26T17:01:10.148Z,4.500000
2019-01-26T17:03:40.555Z,4.500000
2019-01-26T17:06:10.823Z,3.900000
2019-01-26T17:08:41.073Z,3.900000
2019-01-26T17:11:11.262Z,5.200000
2019-01-26T17:13:41.597Z,5.200000
2019-01-26T17:16:11.930Z,3.700000
2019-01-26T17:18:46.127Z,3.700000
2019-01-26T17:21:17.761Z,4.300000
2019-01-26T17:23:53.031Z,4.300000
2019-01-26T17:26:23.376Z,4.100000
2019-01-26T17:28:53.662Z,4.100000
2019-01-26T17:31:23.988Z,4.200000
2019-01-26T17:33:54.524Z,4.200000
2019-01-26T17:36:24.946Z,3.600000
2019-01-26T17:38:55.270Z,3.600000
2019-01-26T17:41:25.670Z,4.200000
2019-01-26T17:43:55.928Z,4.200000
2019-01-26T17:46:26.250Z,4.400000
2019-01-26T17:48:56.594Z,4.400000
2019-01-26T17:51:26.821Z,4.500000
2019-01-26T17:53:57.287Z,4.500000
2019-01-26T17:56:27.699Z,5.300000
2019-01-26T17:58:58.030Z,5.300000
2019-01-26T18:01:28.363Z,4.700000
2019-01-26T18:03:58.696Z,4.700000
2019-01-26T18:06:28.999Z,4.900000
2019-01-26T18:08:59.343Z,4.900000
2019-01-26T18:11:29.557Z,5.800000
2019-01-26T18:13:59.985Z,5.800000
2019-01-26T18:16:30.345Z,5.300000
2019-01-26T18:19:00.653Z,5.300000
2019-01-26T18:21:30.875Z,5.400000
2019-01-26T18:24:01.200Z,5.400000
2019-01-26T18:26:31.515Z,5.300000
2019-01-26T18:29:01.836Z,5.300000
2019-01-26T18:31:32.183Z,5.200000
2019-01-26T18:34:02.488Z,5.200000
2019-01-26T18:36:32.826Z,6.000000
2019-01-26T18:39:03.050Z,6.000000
2019-01-26T18:41:33.279Z,5.500000
2019-01-26T18:44:03.513Z,5.500000
2019-01-26T18:46:33.941Z,5.600000
2019-01-26T18:49:04.174Z,5.600000
2019-01-26T18:51:34.599Z,4.800000
2019-01-26T18:54:05.013Z,4.800000
2019-01-26T18:56:35.353Z,4.900000
2019-01-26T18:59:05.769Z,4.900000
2019-01-26T19:01:36.062Z,5.000000
2019-01-26T19:04:06.351Z,5.000000
2019-01-26T19:06:36.692Z,4.100000
2019-01-26T19:09:07.015Z,4.100000
2019-01-26T19:11:37.254Z,4.600000
2019-01-26T19:14:07.530Z,4.600000
2019-01-26T19:16:38.020Z,3.900000
2019-01-26T19:19:08.275Z,3.900000
2019-01-26T19:21:38.694Z,4.900000
2019-01-26T19:24:09.071Z,4.900000
2019-01-26T19:26:39.305Z,4.600000
2019-01-26T19:29:09.535Z,4.600000
2019-01-26T19:31:39.867Z,5.400000
2019-01-26T19:34:10.207Z,5.400000
2019-01-26T19:36:40.467Z,6.800000
2019-01-26T19:39:10.901Z,6.800000
2019-01-26T19:41:41.119Z,5.800000
2019-01-26T19:44:11.447Z,5.800000
2019-01-26T19:46:41.792Z,5.000000
2019-01-26T19:49:12.086Z,5.000000
2019-01-26T19:51:42.453Z,6.200000
2019-01-26T19:54:12.793Z,6.200000
2019-01-26T19:56:43.142Z,5.600000
2019-01-26T19:59:13.383Z,5.600000
2019-01-26T20:01:43.647Z,7.900000
2019-01-26T20:04:13.995Z,7.900000
2019-01-26T20:06:44.506Z,8.100000
2019-01-26T20:09:15.067Z,8.100000
2019-01-26T20:11:45.281Z,10.100000
2019-01-26T20:14:15.624Z,10.100000
2019-01-26T20:16:45.970Z,8.700000
2019-01-26T20:19:16.172Z,8.700000
2019-01-26T20:21:46.528Z,8.300000
2019-01-26T20:24:17.068Z,8.300000
2019-01-26T20:26:47.530Z,10.000000
2019-01-26T20:29:17.884Z,10.000000
2019-01-26T20:31:48.378Z,10.900000
2019-01-26T20:34:18.697Z,10.900000
2019-01-26T20:36:48.946Z,10.200000
2019-01-26T20:39:19.300Z,10.200000
2019-01-26T20:41:49.705Z,10.500000
2019-01-26T20:44:19.925Z,10.500000
2019-01-26T20:46:50.160Z,11.000000
2019-01-26T20:49:20.483Z,11.000000
2019-01-26T20:51:50.859Z,9.200000
2019-01-26T20:54:21.234Z,9.200000
2019-01-26T20:56:51.461Z,13.000000
2019-01-26T20:59:21.820Z,13.000000
2019-01-26T21:01:52.104Z,10.600000
2019-01-26T21:04:22.523Z,10.600000
2019-01-26T21:06:53.081Z,10.500000
2019-01-26T21:09:23.487Z,10.500000
2019-01-26T21:11:53.910Z,10.300000
2019-01-26T21:14:24.241Z,10.300000
2019-01-26T21:16:54.572Z,10.300000
2019-01-26T21:19:24.816Z,10.300000
2019-01-26T21:21:55.201Z,9.800000
2019-01-26T21:24:25.523Z,9.800000
2019-01-26T21:27:01.073Z,10.800000
2019-01-26T21:29:31.354Z,9.100000
2019-01-26T21:32:01.660Z,9.100000
2019-01-26T21:34:32.101Z,9.400000
2019-01-26T21:37:02.447Z,9.400000
2019-01-26T21:39:32.781Z,9.800000
2019-01-26T21:42:03.211Z,9.800000
2019-01-26T21:44:33.673Z,7.900000
2019-01-26T21:47:03.986Z,7.900000
2019-01-26T21:49:34.220Z,9.800000
2019-01-26T21:52:04.547Z,9.800000
2019-01-26T21:54:39.826Z,9.000000
2019-01-26T21:57:10.219Z,9.000000
2019-01-26T21:59:40.530Z,8.100000
2019-01-26T22:02:10.856Z,8.100000
2019-01-26T22:04:41.290Z,8.500000
2019-01-26T22:07:11.549Z,8.500000
2019-01-26T22:09:41.806Z,9.000000
2019-01-26T22:12:12.200Z,9.000000
2019-01-26T22:14:42.548Z,9.000000
2019-01-26T22:17:12.818Z,9.000000
2019-01-26T22:19:43.054Z,8.700000
2019-01-26T22:22:13.261Z,8.700000
2019-01-26T22:24:43.550Z,10.700000
2019-01-26T22:27:13.857Z,10.700000
2019-01-26T22:29:44.191Z,8.900000
2019-01-26T22:32:14.529Z,8.900000
2019-01-26T22:34:44.834Z,9.900000
2019-01-26T22:37:15.172Z,9.900000
2019-01-26T22:39:45.515Z,6.900000
2019-01-26T22:42:15.826Z,6.900000
2019-01-26T22:44:46.058Z,8.500000
2019-01-26T22:47:16.321Z,8.500000
2019-01-26T22:49:46.568Z,8.900000
2019-01-26T22:52:16.847Z,8.900000
2019-01-26T22:54:47.128Z,8.500000
2019-01-26T22:57:17.422Z,8.500000
2019-01-26T22:59:47.782Z,8.900000
2019-01-26T23:02:18.023Z,8.900000
2019-01-26T23:04:53.460Z,8.500000
2019-01-26T23:07:23.800Z,8.500000
2019-01-26T23:09:54.023Z,10.200000
2019-01-26T23:12:24.529Z,10.200000
2019-01-26T23:14:59.837Z,9.200000
2019-01-26T23:17:30.382Z,9.200000
2019-01-26T23:20:00.780Z,10.200000
2019-01-26T23:22:36.119Z,10.200000
2019-01-26T23:25:06.513Z,10.700000
2019-01-26T23:27:36.926Z,10.700000
2019-01-26T23:30:07.285Z,7.700000
2019-01-26T23:32:37.644Z,7.700000
2019-01-26T23:35:08.001Z,10.300000
2019-01-26T23:37:38.347Z,10.300000
2019-01-26T23:40:08.581Z,9.100000
2019-01-26T23:42:38.908Z,9.100000
2019-01-26T23:45:09.264Z,9.400000
2019-01-26T23:47:39.575Z,9.400000
2019-01-26T23:50:09.818Z,8.600000
2019-01-26T23:52:40.025Z,8.600000
2019-01-26T23:55:10.343Z,8.700000
2019-01-26T23:57:40.684Z,8.700000
